createdAt,value
2022-11-29T00:01:45.271Z,4.10
2022-11-29T00:04:13.945Z,4.10
2022-11-29T00:06:42.469Z,4.10
2022-11-29T00:09:14.296Z,4.10
2022-11-29T00:12:01.740Z,4.10
2022-11-29T00:14:31.046Z,4.10
2022-11-29T00:17:02.827Z,4.10
2022-11-29T00:19:32.862Z,4.10
2022-11-29T00:22:02.815Z,4.10
2022-11-29T00:24:32.719Z,4.10
2022-11-29T00:27:02.559Z,4.10
2022-11-29T00:29:31.662Z,4.00
2022-11-29T00:32:01.810Z,4.00
2022-11-29T00:34:30.506Z,4.10
2022-11-29T00:36:59.206Z,4.00
2022-11-29T00:39:27.969Z,4.00
2022-11-29T00:41:56.585Z,4.00
2022-11-29T00:44:25.310Z,4.00
2022-11-29T00:46:53.850Z,4.00
2022-11-29T00:49:23.825Z,4.00
2022-11-29T00:51:52.661Z,4.00
2022-11-29T00:54:21.220Z,4.00
2022-11-29T00:56:49.747Z,4.00
2022-11-29T00:59:18.253Z,4.00
2022-11-29T01:01:46.967Z,4.10
2022-11-29T01:04:15.719Z,4.00
2022-11-29T01:06:45.640Z,4.00
2022-11-29T01:09:14.268Z,3.90
2022-11-29T01:11:42.874Z,4.00
2022-11-29T01:14:14.489Z,3.90
2022-11-29T01:16:43.259Z,3.90
2022-11-29T01:19:12.066Z,3.90
2022-11-29T01:21:41.331Z,3.90
2022-11-29T01:24:11.499Z,3.90
2022-11-29T01:26:40.182Z,3.90
2022-11-29T01:29:08.775Z,3.80
2022-11-29T01:31:37.429Z,3.90
2022-11-29T01:34:08.323Z,3.90
2022-11-29T01:36:37.313Z,3.80
2022-11-29T01:39:07.687Z,3.80
2022-11-29T01:41:38.853Z,3.80
2022-11-29T01:44:47.288Z,3.80
2022-11-29T01:47:16.985Z,3.90
2022-11-29T01:49:49.549Z,3.80
2022-11-29T01:52:23.782Z,3.70
2022-11-29T01:54:57.638Z,3.70
2022-11-29T01:57:28.514Z,3.80
2022-11-29T02:00:08.846Z,3.70
2022-11-29T02:02:43.115Z,3.60
2022-11-29T02:05:14.100Z,3.60
2022-11-29T02:07:47.161Z,3.60
2022-11-29T02:10:17.650Z,3.60
2022-11-29T02:13:10.526Z,3.60
2022-11-29T02:15:49.649Z,3.50
2022-11-29T02:18:30.902Z,3.60
2022-11-29T02:21:21.649Z,3.60
2022-11-29T02:24:36.373Z,3.60
2022-11-29T02:27:35.396Z,3.60
2022-11-29T02:30:34.678Z,3.60
2022-11-29T02:33:51.505Z,3.50
2022-11-29T02:37:19.908Z,3.50
2022-11-29T02:40:18.098Z,3.50
2022-11-29T02:43:18.635Z,3.50
2022-11-29T02:46:05.114Z,3.60
2022-11-29T02:48:59.248Z,3.50
2022-11-29T02:51:42.709Z,3.50
2022-11-29T02:54:20.515Z,3.60
2022-11-29T02:56:58.210Z,3.60
2022-11-29T02:59:47.867Z,3.60
2022-11-29T03:02:28.608Z,3.60
2022-11-29T03:05:13.942Z,3.60
2022-11-29T03:07:54.802Z,3.60
2022-11-29T03:10:36.011Z,3.70
2022-11-29T03:13:13.136Z,3.60
2022-11-29T03:15:59.035Z,3.60
2022-11-29T03:18:43.113Z,3.60
2022-11-29T03:21:29.028Z,3.60
2022-11-29T03:24:02.615Z,3.70
2022-11-29T03:26:39.425Z,3.70
2022-11-29T03:29:16.679Z,3.60
2022-11-29T03:31:52.461Z,3.60
2022-11-29T03:34:36.978Z,3.60
2022-11-29T03:37:16.990Z,3.60
2022-11-29T03:39:54.243Z,3.60
2022-11-29T03:42:30.013Z,3.60
2022-11-29T03:45:06.995Z,3.60
2022-11-29T03:47:44.223Z,3.60
2022-11-29T03:50:20.434Z,3.60
2022-11-29T03:52:55.904Z,3.60
2022-11-29T03:55:50.289Z,3.60
2022-11-29T03:58:49.667Z,3.60
2022-11-29T04:02:09.111Z,3.60
2022-11-29T04:05:26.648Z,3.60
2022-11-29T04:08:21.901Z,3.60
2022-11-29T04:11:19.373Z,3.50
2022-11-29T04:14:32.799Z,3.60
2022-11-29T04:17:46.952Z,3.40
2022-11-29T04:20:51.354Z,3.40
2022-11-29T04:24:14.518Z,3.50
2022-11-29T04:27:36.356Z,3.40
2022-11-29T04:30:17.787Z,3.40
2022-11-29T04:33:47.926Z,3.40
2022-11-29T04:36:53.778Z,3.40
2022-11-29T04:39:58.311Z,3.40
2022-11-29T04:43:17.716Z,3.40
2022-11-29T04:46:22.975Z,3.30
2022-11-29T04:49:11.458Z,3.30
2022-11-29T04:52:07.028Z,3.40
2022-11-29T04:54:46.166Z,3.40
2022-11-29T04:57:28.595Z,3.40
2022-11-29T05:00:09.959Z,3.40
2022-11-29T05:02:51.739Z,3.40
2022-11-29T05:05:34.372Z,3.40
2022-11-29T05:08:30.331Z,3.40
2022-11-29T05:11:11.856Z,3.30
2022-11-29T05:13:54.409Z,3.20
2022-11-29T05:16:46.021Z,3.20
2022-11-29T05:19:47.807Z,3.20
2022-11-29T05:22:32.855Z,3.20
2022-11-29T05:25:28.703Z,3.20
2022-11-29T05:28:10.285Z,3.10
2022-11-29T05:31:07.795Z,3.10
2022-11-29T05:34:17.706Z,3.10
2022-11-29T05:36:59.899Z,3.10
2022-11-29T05:39:43.926Z,3.00
2022-11-29T05:42:49.578Z,3.00
2022-11-29T05:45:26.751Z,3.30
2022-11-29T05:48:05.758Z,3.40
2022-11-29T05:50:43.218Z,3.50
2022-11-29T05:53:24.817Z,3.60
2022-11-29T05:56:06.707Z,3.70
2022-11-29T05:58:55.568Z,3.60
2022-11-29T06:01:27.333Z,3.30
2022-11-29T06:04:07.980Z,3.20
2022-11-29T06:06:50.638Z,3.20
2022-11-29T06:09:28.509Z,3.20
2022-11-29T06:12:05.397Z,3.10
2022-11-29T06:15:13.821Z,3.10
2022-11-29T06:18:11.134Z,3.10
2022-11-29T06:21:00.785Z,3.10
2022-11-29T06:24:10.307Z,3.10
2022-11-29T06:27:07.818Z,3.10
2022-11-29T06:29:50.486Z,3.20
2022-11-29T06:32:30.644Z,3.20
2022-11-29T06:35:06.055Z,3.20
2022-11-29T06:37:40.383Z,3.20
2022-11-29T06:40:15.937Z,3.20
2022-11-29T06:42:44.691Z,3.20
2022-11-29T06:45:16.021Z,3.30
2022-11-29T06:47:51.166Z,3.20
2022-11-29T06:50:38.727Z,3.30
2022-11-29T06:53:19.614Z,3.30
2022-11-29T06:56:00.697Z,3.30
2022-11-29T06:58:56.107Z,3.30
2022-11-29T07:01:38.144Z,3.30
2022-11-29T07:04:31.207Z,3.30
2022-11-29T07:07:00.729Z,3.40
2022-11-29T07:09:35.725Z,3.40
2022-11-29T07:12:06.724Z,3.40
2022-11-29T07:14:36.520Z,3.40
2022-11-29T07:17:16.610Z,3.30
2022-11-29T07:19:59.365Z,3.30
2022-11-29T07:22:57.003Z,3.20
2022-11-29T07:25:44.006Z,3.20
2022-11-29T07:28:30.405Z,3.20
2022-11-29T07:31:12.413Z,3.10
2022-11-29T07:33:53.849Z,3.10
2022-11-29T07:36:40.311Z,3.10
2022-11-29T07:39:26.178Z,3.10
2022-11-29T07:42:07.943Z,3.10
2022-11-29T07:44:47.464Z,3.10
2022-11-29T07:47:16.273Z,3.00
2022-11-29T07:49:44.899Z,3.10
2022-11-29T07:52:15.670Z,3.10
2022-11-29T07:54:44.722Z,3.10
2022-11-29T07:57:13.509Z,3.10
2022-11-29T07:59:43.968Z,3.10
2022-11-29T08:02:13.016Z,3.10
2022-11-29T08:04:45.474Z,3.20
2022-11-29T08:07:14.271Z,3.20
2022-11-29T08:09:43.044Z,3.10
2022-11-29T08:12:11.714Z,3.20
2022-11-29T08:14:40.275Z,3.20
2022-11-29T08:17:10.487Z,3.10
2022-11-29T08:19:39.327Z,3.10
2022-11-29T08:22:07.905Z,3.10
2022-11-29T08:24:36.507Z,3.20
2022-11-29T08:27:05.341Z,3.20
2022-11-29T08:29:33.883Z,3.20
2022-11-29T08:32:02.431Z,3.20
2022-11-29T08:34:32.558Z,3.20
2022-11-29T08:37:01.101Z,3.20
2022-11-29T08:39:29.687Z,3.20
2022-11-29T08:41:58.211Z,3.20
2022-11-29T08:44:26.735Z,3.20
2022-11-29T08:47:12.912Z,3.30
2022-11-29T08:49:56.867Z,3.30
2022-11-29T08:52:42.947Z,3.30
2022-11-29T08:55:11.584Z,3.20
2022-11-29T08:57:41.130Z,3.20
2022-11-29T09:00:12.573Z,3.20
2022-11-29T09:02:41.592Z,3.20
2022-11-29T09:05:13.149Z,3.30
2022-11-29T09:07:42.231Z,3.30
2022-11-29T09:10:12.599Z,3.30
2022-11-29T09:12:42.843Z,3.30
2022-11-29T09:15:12.886Z,3.30
2022-11-29T09:17:41.561Z,3.30
2022-11-29T09:20:13.283Z,3.30
2022-11-29T09:22:41.944Z,3.30
2022-11-29T09:25:10.744Z,3.30
2022-11-29T09:27:41.853Z,3.30
2022-11-29T09:30:12.030Z,3.40
2022-11-29T09:32:40.603Z,3.50
2022-11-29T09:35:11.065Z,3.50
2022-11-29T09:37:43.327Z,3.40
2022-11-29T09:40:20.910Z,3.40
2022-11-29T09:43:01.903Z,3.40
2022-11-29T09:45:37.183Z,3.50
2022-11-29T09:48:42.659Z,3.60
2022-11-29T09:51:25.231Z,3.70
2022-11-29T09:54:12.899Z,3.70
2022-11-29T09:56:47.044Z,3.70
2022-11-29T09:59:22.884Z,3.70
2022-11-29T10:02:00.950Z,3.70
2022-11-29T10:04:36.829Z,3.90
2022-11-29T10:07:18.243Z,4.10
2022-11-29T10:09:53.164Z,4.10
2022-11-29T10:12:32.021Z,4.20
2022-11-29T10:15:09.610Z,4.40
2022-11-29T10:17:45.670Z,4.40
2022-11-29T10:20:20.076Z,4.40
2022-11-29T10:22:56.267Z,4.60
2022-11-29T10:25:29.008Z,4.60
2022-11-29T10:27:57.650Z,4.70
2022-11-29T10:30:26.257Z,4.70
2022-11-29T10:33:01.378Z,4.70
2022-11-29T10:35:30.645Z,4.60
2022-11-29T10:38:29.588Z,5.00
2022-11-29T10:41:02.079Z,5.40
2022-11-29T10:43:30.664Z,5.20
2022-11-29T10:46:02.608Z,5.40
2022-11-29T10:48:35.717Z,5.70
2022-11-29T10:51:04.371Z,6.10
2022-11-29T10:53:38.356Z,6.10
2022-11-29T10:56:15.078Z,6.00
2022-11-29T10:58:58.677Z,6.00
2022-11-29T11:01:30.365Z,6.20
2022-11-29T11:04:03.326Z,5.90
2022-11-29T11:06:47.868Z,6.00
2022-11-29T11:09:24.592Z,5.90
2022-11-29T11:11:55.833Z,5.60
2022-11-29T11:14:26.976Z,5.60
2022-11-29T11:16:55.883Z,5.60
2022-11-29T11:19:31.531Z,5.80
2022-11-29T11:22:03.089Z,5.80
2022-11-29T11:24:37.242Z,5.90
2022-11-29T11:27:06.000Z,5.80
2022-11-29T11:29:40.227Z,5.80
2022-11-29T11:32:18.883Z,5.70
2022-11-29T11:34:54.476Z,5.60
2022-11-29T11:37:27.786Z,5.70
2022-11-29T11:40:00.873Z,5.60
2022-11-29T11:42:38.386Z,5.70
2022-11-29T11:45:31.107Z,5.60
2022-11-29T11:48:05.732Z,5.50
2022-11-29T11:50:42.171Z,5.30
2022-11-29T11:53:23.595Z,5.30
2022-11-29T11:56:01.941Z,5.20
2022-11-29T11:58:33.704Z,5.20
2022-11-29T12:01:24.508Z,5.30
2022-11-29T12:04:05.604Z,5.20
2022-11-29T12:06:48.004Z,5.00
2022-11-29T12:09:29.540Z,4.90
2022-11-29T12:12:10.521Z,4.90
2022-11-29T12:14:54.553Z,4.80
2022-11-29T12:17:36.108Z,4.70
2022-11-29T12:20:26.561Z,4.70
2022-11-29T12:23:20.730Z,4.70
2022-11-29T12:25:56.964Z,4.60
2022-11-29T12:28:31.523Z,4.50
2022-11-29T12:31:15.590Z,4.50
2022-11-29T12:33:56.642Z,4.50
2022-11-29T12:36:41.706Z,4.60
2022-11-29T12:39:35.302Z,4.60
2022-11-29T12:42:23.878Z,4.50
2022-11-29T12:45:03.481Z,4.50
2022-11-29T12:47:51.898Z,4.50
2022-11-29T12:50:44.840Z,4.50
2022-11-29T12:53:33.967Z,4.40
2022-11-29T12:56:15.982Z,4.40
2022-11-29T12:59:14.160Z,4.40
2022-11-29T13:02:04.190Z,4.50
2022-11-29T13:04:46.771Z,4.60
2022-11-29T13:07:31.067Z,4.60
2022-11-29T13:10:33.965Z,4.60
2022-11-29T13:13:21.844Z,4.70
2022-11-29T13:16:03.612Z,4.70
2022-11-29T13:18:42.427Z,4.60
2022-11-29T13:21:17.156Z,4.60
2022-11-29T13:24:13.692Z,4.50
2022-11-29T13:26:44.310Z,4.50
2022-11-29T13:29:18.470Z,4.50
2022-11-29T13:31:50.038Z,4.40
2022-11-29T13:34:25.988Z,4.40
2022-11-29T13:37:09.069Z,4.40
2022-11-29T13:39:58.155Z,4.40
2022-11-29T13:42:38.857Z,4.50
2022-11-29T13:45:20.261Z,4.50
2022-11-29T13:47:54.025Z,4.40
2022-11-29T13:50:48.289Z,4.40
2022-11-29T13:53:19.517Z,4.40
2022-11-29T13:55:59.953Z,4.40
2022-11-29T13:58:40.163Z,4.30
2022-11-29T14:01:11.665Z,4.40
2022-11-29T14:03:42.575Z,4.30
2022-11-29T14:06:21.261Z,4.30
2022-11-29T14:09:27.363Z,4.30
2022-11-29T14:12:06.868Z,4.40
2022-11-29T14:14:48.547Z,4.30
2022-11-29T14:17:36.148Z,4.40
2022-11-29T14:20:55.224Z,4.40
2022-11-29T14:23:41.744Z,4.40
2022-11-29T14:26:29.296Z,4.30
2022-11-29T14:29:00.140Z,4.30
2022-11-29T14:31:56.865Z,4.30
2022-11-29T14:34:51.954Z,4.40
2022-11-29T14:37:42.322Z,4.40
2022-11-29T14:40:28.815Z,4.30
2022-11-29T14:42:57.517Z,4.30
2022-11-29T14:45:31.671Z,4.30
2022-11-29T14:48:01.729Z,4.30
2022-11-29T14:50:37.710Z,4.30
2022-11-29T14:53:08.351Z,4.30
2022-11-29T14:55:39.919Z,4.20
2022-11-29T14:58:21.922Z,4.30
2022-11-29T15:01:10.356Z,4.20
2022-11-29T15:03:49.659Z,4.20
2022-11-29T15:06:30.346Z,4.30
2022-11-29T15:09:05.759Z,4.30
2022-11-29T15:11:50.934Z,4.20
2022-11-29T15:14:32.650Z,4.20
2022-11-29T15:17:28.049Z,4.10
2022-11-29T15:20:36.263Z,4.20
2022-11-29T15:23:09.938Z,4.20
2022-11-29T15:25:49.093Z,4.20
2022-11-29T15:28:24.821Z,4.20
2022-11-29T15:31:05.850Z,4.20
2022-11-29T15:33:37.309Z,4.20
2022-11-29T15:36:09.414Z,4.20
2022-11-29T15:38:46.504Z,4.20
2022-11-29T15:41:22.894Z,4.20
2022-11-29T15:44:01.845Z,4.20
2022-11-29T15:46:33.690Z,4.10
2022-11-29T15:49:18.816Z,4.10
2022-11-29T15:51:54.351Z,4.10
2022-11-29T15:54:32.342Z,4.00
2022-11-29T15:57:06.032Z,4.10
2022-11-29T15:59:44.109Z,4.00
2022-11-29T16:02:22.680Z,4.00
2022-11-29T16:04:58.267Z,4.00
2022-11-29T16:07:32.345Z,4.00
2022-11-29T16:10:11.754Z,4.00
2022-11-29T16:12:54.145Z,4.00
2022-11-29T16:15:32.091Z,3.90
2022-11-29T16:18:06.065Z,3.90
2022-11-29T16:20:34.885Z,3.90
2022-11-29T16:23:11.524Z,3.80
2022-11-29T16:25:56.557Z,3.90
2022-11-29T16:28:36.344Z,3.70
2022-11-29T16:31:06.601Z,3.70
2022-11-29T16:33:35.152Z,3.70
2022-11-29T16:36:16.099Z,3.70
2022-11-29T16:38:48.820Z,3.70
2022-11-29T16:41:34.033Z,3.70
2022-11-29T16:44:05.109Z,3.60
2022-11-29T16:46:40.790Z,3.60
2022-11-29T16:49:36.595Z,3.60
2022-11-29T16:52:25.219Z,3.60
2022-11-29T16:54:54.224Z,3.60
2022-11-29T16:57:23.711Z,3.60
2022-11-29T16:59:52.700Z,3.60
2022-11-29T17:02:22.813Z,3.60
2022-11-29T17:04:52.622Z,3.50
2022-11-29T17:07:30.707Z,3.60
2022-11-29T17:10:00.618Z,3.50
2022-11-29T17:12:29.213Z,3.50
2022-11-29T17:14:57.792Z,3.50
2022-11-29T17:17:27.792Z,3.50
2022-11-29T17:19:56.499Z,3.50
2022-11-29T17:22:25.157Z,3.50
2022-11-29T17:24:54.274Z,3.50
2022-11-29T17:27:23.014Z,3.40
2022-11-29T17:29:51.538Z,3.40
2022-11-29T17:32:26.539Z,3.40
2022-11-29T17:34:57.190Z,3.40
2022-11-29T17:37:25.762Z,3.30
2022-11-29T17:39:54.332Z,3.40
2022-11-29T17:42:22.881Z,3.40
2022-11-29T17:44:51.567Z,3.50
2022-11-29T17:47:20.226Z,3.50
2022-11-29T17:49:49.074Z,3.60
2022-11-29T17:52:19.235Z,3.60
2022-11-29T17:54:48.115Z,3.60
2022-11-29T17:57:17.304Z,3.70
2022-11-29T17:59:46.136Z,3.70
2022-11-29T18:02:15.043Z,3.70
2022-11-29T18:04:44.522Z,3.70
2022-11-29T18:07:15.948Z,3.60
2022-11-29T18:09:47.575Z,3.60
2022-11-29T18:12:16.597Z,3.50
2022-11-29T18:14:45.214Z,3.50
2022-11-29T18:17:13.858Z,3.50
2022-11-29T18:19:42.568Z,3.50
2022-11-29T18:22:11.196Z,3.50
2022-11-29T18:24:43.515Z,3.60
2022-11-29T18:27:13.588Z,3.60
2022-11-29T18:29:42.187Z,3.60
2022-11-29T18:32:10.966Z,3.60
2022-11-29T18:34:39.595Z,3.60
2022-11-29T18:37:12.416Z,3.60
2022-11-29T18:39:45.009Z,3.60
2022-11-29T18:42:15.308Z,3.60
2022-11-29T18:44:44.217Z,3.60
2022-11-29T18:47:13.198Z,3.50
2022-11-29T18:49:41.782Z,3.50
2022-11-29T18:52:10.418Z,3.50
2022-11-29T18:54:39.034Z,3.50
2022-11-29T18:57:07.797Z,3.50
2022-11-29T18:59:37.834Z,3.50
2022-11-29T19:02:06.453Z,3.40
2022-11-29T19:04:36.820Z,3.40
2022-11-29T19:07:05.703Z,3.40
2022-11-29T19:09:34.267Z,3.40
2022-11-29T19:12:03.879Z,3.40
2022-11-29T19:14:33.936Z,3.30
2022-11-29T19:17:03.914Z,3.40
2022-11-29T19:19:32.978Z,3.40
2022-11-29T19:22:01.628Z,3.40
2022-11-29T19:24:30.201Z,3.40
2022-11-29T19:27:01.117Z,3.30
2022-11-29T19:29:29.797Z,3.40
2022-11-29T19:31:58.412Z,3.40
2022-11-29T19:34:28.709Z,3.40
2022-11-29T19:36:57.334Z,3.40
2022-11-29T19:39:26.133Z,3.40
2022-11-29T19:41:54.787Z,3.40
2022-11-29T19:44:29.178Z,3.40
2022-11-29T19:46:59.369Z,3.30
2022-11-29T19:49:29.322Z,3.20
2022-11-29T19:51:58.022Z,3.20
2022-11-29T19:54:26.996Z,3.30
2022-11-29T19:56:55.829Z,3.20
2022-11-29T19:59:24.551Z,3.20
2022-11-29T20:01:53.201Z,3.10
2022-11-29T20:04:22.120Z,3.10
2022-11-29T20:06:54.534Z,3.10
2022-11-29T20:09:23.484Z,3.10
2022-11-29T20:11:52.206Z,3.10
2022-11-29T20:14:20.790Z,3.10
2022-11-29T20:16:49.410Z,3.20
2022-11-29T20:19:18.961Z,3.10
2022-11-29T20:21:51.343Z,3.20
2022-11-29T20:24:20.535Z,3.20
2022-11-29T20:26:50.601Z,3.20
2022-11-29T20:29:21.580Z,3.20
2022-11-29T20:31:51.351Z,3.10
2022-11-29T20:34:21.543Z,3.10
2022-11-29T20:37:53.686Z,3.10
2022-11-29T20:40:29.264Z,3.10
2022-11-29T20:43:12.512Z,3.10
2022-11-29T20:45:41.875Z,3.10
2022-11-29T20:48:19.104Z,3.10
2022-11-29T20:51:00.249Z,3.00
2022-11-29T20:53:37.208Z,3.00
2022-11-29T20:56:07.302Z,3.00
2022-11-29T20:58:37.088Z,3.00
2022-11-29T21:01:07.463Z,3.00
2022-11-29T21:03:36.392Z,3.10
2022-11-29T21:06:07.569Z,3.10
2022-11-29T21:08:37.807Z,3.00
2022-11-29T21:11:10.339Z,3.00
2022-11-29T21:13:39.937Z,3.00
2022-11-29T21:16:11.192Z,3.00
2022-11-29T21:18:41.174Z,3.00
2022-11-29T21:21:23.718Z,3.00
2022-11-29T21:24:06.820Z,3.00
2022-11-29T21:26:42.145Z,3.00
2022-11-29T21:29:18.814Z,3.00
2022-11-29T21:31:50.157Z,3.00
2022-11-29T21:34:19.309Z,3.00
2022-11-29T21:36:53.950Z,3.00
2022-11-29T21:39:27.923Z,3.00
2022-11-29T21:41:56.438Z,2.90
2022-11-29T21:44:25.064Z,2.90
2022-11-29T21:46:53.655Z,2.80
2022-11-29T21:49:22.250Z,2.80
2022-11-29T21:51:51.478Z,2.80
2022-11-29T21:54:20.033Z,2.70
2022-11-29T21:56:50.057Z,2.70
2022-11-29T21:59:18.618Z,2.70
2022-11-29T22:01:47.257Z,2.70
2022-11-29T22:04:15.908Z,2.80
2022-11-29T22:06:44.507Z,2.80
2022-11-29T22:09:13.082Z,2.70
2022-11-29T22:11:42.374Z,2.70
2022-11-29T22:14:16.053Z,2.80
2022-11-29T22:16:47.574Z,2.80
2022-11-29T22:19:19.106Z,2.80
2022-11-29T22:21:51.072Z,2.80
2022-11-29T22:24:22.481Z,2.70
2022-11-29T22:26:52.882Z,2.70
2022-11-29T22:29:24.585Z,2.70
2022-11-29T22:31:56.682Z,2.60
2022-11-29T22:34:27.994Z,2.70
2022-11-29T22:36:56.736Z,2.60
2022-11-29T22:39:25.744Z,2.60
2022-11-29T22:41:55.323Z,2.60
2022-11-29T22:44:25.945Z,2.60
2022-11-29T22:46:54.661Z,2.60
2022-11-29T22:49:23.313Z,2.60
2022-11-29T22:51:52.380Z,2.50
2022-11-29T22:54:21.021Z,2.50
2022-11-29T22:56:49.581Z,2.40
2022-11-29T22:59:18.129Z,2.40
2022-11-29T23:01:48.212Z,2.40
2022-11-29T23:04:16.883Z,2.40
2022-11-29T23:06:47.158Z,2.50
2022-11-29T23:09:20.027Z,2.50
2022-11-29T23:11:53.059Z,2.50
2022-11-29T23:14:22.511Z,2.50
2022-11-29T23:16:53.253Z,2.50
2022-11-29T23:19:22.284Z,2.50
2022-11-29T23:21:51.094Z,2.60
2022-11-29T23:24:19.678Z,2.60
2022-11-29T23:26:49.153Z,2.50
2022-11-29T23:29:20.483Z,2.50
2022-11-29T23:31:49.849Z,2.50
2022-11-29T23:34:20.156Z,2.60
2022-11-29T23:36:52.944Z,2.50
2022-11-29T23:39:22.068Z,2.50
2022-11-29T23:41:50.643Z,2.40
2022-11-29T23:44:19.219Z,2.50
2022-11-29T23:46:47.873Z,2.50
2022-11-29T23:49:16.357Z,2.50
2022-11-29T23:51:46.305Z,2.50
2022-11-29T23:54:14.892Z,2.60
2022-11-29T23:56:43.621Z,2.60
2022-11-29T23:59:12.128Z,2.60
